sensor_id;sensor_type;location;lat;lon;timestamp;temperature;humidity
19090;DHT22;9677;50.656;13.064;2023-06-05T00:02:03;18.40;29.30
19090;DHT22;9677;50.656;13.064;2023-06-05T00:04:31;18.30;29.30
19090;DHT22;9677;50.656;13.064;2023-06-05T00:07:04;18.30;29.40
19090;DHT22;9677;50.656;13.064;2023-06-05T00:09:32;18.30;29.60
19090;DHT22;9677;50.656;13.064;2023-06-05T00:12:00;18.20;29.50
19090;DHT22;9677;50.656;13.064;2023-06-05T00:14:29;18.10;29.60
19090;DHT22;9677;50.656;13.064;2023-06-05T00:16:57;18.10;29.60
19090;DHT22;9677;50.656;13.064;2023-06-05T00:19:25;18.00;29.70
19090;DHT22;9677;50.656;13.064;2023-06-05T00:21:53;18.00;29.70
19090;DHT22;9677;50.656;13.064;2023-06-05T00:24:23;18.00;29.70
19090;DHT22;9677;50.656;13.064;2023-06-05T00:26:51;17.90;29.90
19090;DHT22;9677;50.656;13.064;2023-06-05T00:29:19;17.90;29.90
19090;DHT22;9677;50.656;13.064;2023-06-05T00:31:47;17.80;29.90
19090;DHT22;9677;50.656;13.064;2023-06-05T00:34:15;17.80;30.00
19090;DHT22;9677;50.656;13.064;2023-06-05T00:36:43;17.70;29.90
19090;DHT22;9677;50.656;13.064;2023-06-05T00:39:12;17.60;30.50
19090;DHT22;9677;50.656;13.064;2023-06-05T00:41:41;17.60;30.00
19090;DHT22;9677;50.656;13.064;2023-06-05T00:44:09;17.60;30.10
19090;DHT22;9677;50.656;13.064;2023-06-05T00:46:38;17.50;30.10
19090;DHT22;9677;50.656;13.064;2023-06-05T00:49:07;17.50;30.20
19090;DHT22;9677;50.656;13.064;2023-06-05T00:51:36;17.40;30.20
19090;DHT22;9677;50.656;13.064;2023-06-05T00:54:05;17.40;30.30
19090;DHT22;9677;50.656;13.064;2023-06-05T00:56:35;17.40;30.40
19090;DHT22;9677;50.656;13.064;2023-06-05T00:59:05;17.40;30.40
19090;DHT22;9677;50.656;13.064;2023-06-05T01:01:33;17.30;30.40
19090;DHT22;9677;50.656;13.064;2023-06-05T01:04:03;17.30;30.40
19090;DHT22;9677;50.656;13.064;2023-06-05T01:06:32;17.20;30.50
19090;DHT22;9677;50.656;13.064;2023-06-05T01:09:02;17.20;30.60
19090;DHT22;9677;50.656;13.064;2023-06-05T01:11:38;17.20;30.60
19090;DHT22;9677;50.656;13.064;2023-06-05T01:14:15;17.10;31.00
19090;DHT22;9677;50.656;13.064;2023-06-05T01:16:48;17.10;31.00
19090;DHT22;9677;50.656;13.064;2023-06-05T01:19:21;17.10;30.90
19090;DHT22;9677;50.656;13.064;2023-06-05T01:21:51;17.00;30.80
19090;DHT22;9677;50.656;13.064;2023-06-05T01:24:22;17.00;30.80
19090;DHT22;9677;50.656;13.064;2023-06-05T01:27:00;17.00;30.90
19090;DHT22;9677;50.656;13.064;2023-06-05T01:29:35;17.00;31.10
19090;DHT22;9677;50.656;13.064;2023-06-05T01:32:13;16.90;31.20
19090;DHT22;9677;50.656;13.064;2023-06-05T01:34:44;16.90;31.20
19090;DHT22;9677;50.656;13.064;2023-06-05T01:37:16;16.80;31.00
19090;DHT22;9677;50.656;13.064;2023-06-05T01:39:47;16.80;31.00
19090;DHT22;9677;50.656;13.064;2023-06-05T01:42:17;16.80;31.20
19090;DHT22;9677;50.656;13.064;2023-06-05T01:44:47;16.70;31.20
19090;DHT22;9677;50.656;13.064;2023-06-05T01:47:16;16.80;31.30
19090;DHT22;9677;50.656;13.064;2023-06-05T01:49:44;16.70;31.30
19090;DHT22;9677;50.656;13.064;2023-06-05T01:52:12;16.70;31.40
19090;DHT22;9677;50.656;13.064;2023-06-05T01:54:40;16.60;31.30
19090;DHT22;9677;50.656;13.064;2023-06-05T01:57:10;17.40;31.80
19090;DHT22;9677;50.656;13.064;2023-06-05T01:59:38;17.20;31.80
19090;DHT22;9677;50.656;13.064;2023-06-05T02:02:06;16.50;31.50
19090;DHT22;9677;50.656;13.064;2023-06-05T02:04:35;16.50;31.50
19090;DHT22;9677;50.656;13.064;2023-06-05T02:07:04;16.50;31.60
19090;DHT22;9677;50.656;13.064;2023-06-05T02:09:33;16.40;31.60
19090;DHT22;9677;50.656;13.064;2023-06-05T02:12:02;16.40;31.60
19090;DHT22;9677;50.656;13.064;2023-06-05T02:14:32;16.40;31.70
19090;DHT22;9677;50.656;13.064;2023-06-05T02:17:03;16.40;31.80
19090;DHT22;9677;50.656;13.064;2023-06-05T02:19:33;16.40;31.90
19090;DHT22;9677;50.656;13.064;2023-06-05T02:22:01;16.40;31.90
19090;DHT22;9677;50.656;13.064;2023-06-05T02:24:29;16.40;31.90
19090;DHT22;9677;50.656;13.064;2023-06-05T02:26:58;16.30;31.80
19090;DHT22;9677;50.656;13.064;2023-06-05T02:29:26;16.40;31.90
19090;DHT22;9677;50.656;13.064;2023-06-05T02:31:56;16.30;31.90
19090;DHT22;9677;50.656;13.064;2023-06-05T02:34:24;16.30;31.90
19090;DHT22;9677;50.656;13.064;2023-06-05T02:36:52;16.30;32.00
19090;DHT22;9677;50.656;13.064;2023-06-05T02:39:22;16.30;32.10
19090;DHT22;9677;50.656;13.064;2023-06-05T02:41:50;17.30;32.60
19090;DHT22;9677;50.656;13.064;2023-06-05T02:44:18;16.10;32.00
19090;DHT22;9677;50.656;13.064;2023-06-05T02:46:47;16.10;32.10
19090;DHT22;9677;50.656;13.064;2023-06-05T02:49:16;16.10;32.10
19090;DHT22;9677;50.656;13.064;2023-06-05T02:51:44;16.00;32.30
19090;DHT22;9677;50.656;13.064;2023-06-05T02:54:13;16.00;32.20
19090;DHT22;9677;50.656;13.064;2023-06-05T02:56:42;16.00;32.30
19090;DHT22;9677;50.656;13.064;2023-06-05T02:59:11;15.90;32.30
19090;DHT22;9677;50.656;13.064;2023-06-05T03:01:39;15.90;32.40
19090;DHT22;9677;50.656;13.064;2023-06-05T03:04:10;15.90;32.40
19090;DHT22;9677;50.656;13.064;2023-06-05T03:06:41;15.90;32.50
19090;DHT22;9677;50.656;13.064;2023-06-05T03:09:10;15.80;32.50
19090;DHT22;9677;50.656;13.064;2023-06-05T03:11:38;15.80;32.50
19090;DHT22;9677;50.656;13.064;2023-06-05T03:14:08;15.80;32.70
19090;DHT22;9677;50.656;13.064;2023-06-05T03:16:37;15.80;32.70
19090;DHT22;9677;50.656;13.064;2023-06-05T03:19:09;15.70;32.80
19090;DHT22;9677;50.656;13.064;2023-06-05T03:21:41;15.70;32.90
19090;DHT22;9677;50.656;13.064;2023-06-05T03:24:11;15.70;32.90
19090;DHT22;9677;50.656;13.064;2023-06-05T03:26:43;15.60;33.00
19090;DHT22;9677;50.656;13.064;2023-06-05T03:29:12;15.60;33.00
19090;DHT22;9677;50.656;13.064;2023-06-05T03:31:42;15.50;33.00
19090;DHT22;9677;50.656;13.064;2023-06-05T03:34:11;15.50;33.10
19090;DHT22;9677;50.656;13.064;2023-06-05T03:36:41;15.50;33.20
19090;DHT22;9677;50.656;13.064;2023-06-05T03:39:12;15.50;33.20
19090;DHT22;9677;50.656;13.064;2023-06-05T03:41:41;15.40;33.20
19090;DHT22;9677;50.656;13.064;2023-06-05T03:44:10;16.40;33.70
19090;DHT22;9677;50.656;13.064;2023-06-05T03:46:38;15.40;33.30
19090;DHT22;9677;50.656;13.064;2023-06-05T03:49:06;15.40;33.40
19090;DHT22;9677;50.656;13.064;2023-06-05T03:51:37;15.30;33.40
19090;DHT22;9677;50.656;13.064;2023-06-05T03:54:08;15.30;33.50
19090;DHT22;9677;50.656;13.064;2023-06-05T03:56:37;15.30;33.60
19090;DHT22;9677;50.656;13.064;2023-06-05T03:59:11;15.20;33.70
19090;DHT22;9677;50.656;13.064;2023-06-05T04:01:55;15.20;33.70
19090;DHT22;9677;50.656;13.064;2023-06-05T04:04:24;15.20;33.80
19090;DHT22;9677;50.656;13.064;2023-06-05T04:06:54;15.20;33.80
19090;DHT22;9677;50.656;13.064;2023-06-05T04:09:26;15.10;33.90
19090;DHT22;9677;50.656;13.064;2023-06-05T04:11:54;15.10;34.00
19090;DHT22;9677;50.656;13.064;2023-06-05T04:14:22;15.10;34.00
19090;DHT22;9677;50.656;13.064;2023-06-05T04:16:50;15.10;34.10
19090;DHT22;9677;50.656;13.064;2023-06-05T04:19:22;15.10;34.20
19090;DHT22;9677;50.656;13.064;2023-06-05T04:21:53;15.10;34.20
19090;DHT22;9677;50.656;13.064;2023-06-05T04:24:21;15.10;34.20
19090;DHT22;9677;50.656;13.064;2023-06-05T04:26:53;15.10;34.40
19090;DHT22;9677;50.656;13.064;2023-06-05T04:29:21;15.00;34.40
19090;DHT22;9677;50.656;13.064;2023-06-05T04:31:49;15.00;34.40
19090;DHT22;9677;50.656;13.064;2023-06-05T04:34:18;15.00;34.40
19090;DHT22;9677;50.656;13.064;2023-06-05T04:36:46;15.00;34.50
19090;DHT22;9677;50.656;13.064;2023-06-05T04:39:16;15.00;34.50
19090;DHT22;9677;50.656;13.064;2023-06-05T04:41:46;15.00;34.70
19090;DHT22;9677;50.656;13.064;2023-06-05T04:44:34;15.00;34.90
19090;DHT22;9677;50.656;13.064;2023-06-05T04:47:04;15.00;34.90
19090;DHT22;9677;50.656;13.064;2023-06-05T04:49:33;15.00;34.90
19090;DHT22;9677;50.656;13.064;2023-06-05T04:52:02;15.00;34.90
19090;DHT22;9677;50.656;13.064;2023-06-05T04:54:30;15.00;35.00
19090;DHT22;9677;50.656;13.064;2023-06-05T04:56:58;15.10;35.20
19090;DHT22;9677;50.656;13.064;2023-06-05T04:59:28;15.10;35.30
19090;DHT22;9677;50.656;13.064;2023-06-05T05:02:01;15.10;35.30
19090;DHT22;9677;50.656;13.064;2023-06-05T05:04:30;15.10;35.30
19090;DHT22;9677;50.656;13.064;2023-06-05T05:06:58;15.20;35.30
19090;DHT22;9677;50.656;13.064;2023-06-05T05:09:28;15.20;35.40
19090;DHT22;9677;50.656;13.064;2023-06-05T05:11:57;15.20;35.60
19090;DHT22;9677;50.656;13.064;2023-06-05T05:14:26;15.30;35.50
19090;DHT22;9677;50.656;13.064;2023-06-05T05:16:54;15.30;35.60
19090;DHT22;9677;50.656;13.064;2023-06-05T05:19:24;15.40;35.70
19090;DHT22;9677;50.656;13.064;2023-06-05T05:21:52;15.40;35.70
19090;DHT22;9677;50.656;13.064;2023-06-05T05:24:20;15.40;35.70
19090;DHT22;9677;50.656;13.064;2023-06-05T05:26:49;15.50;35.80
19090;DHT22;9677;50.656;13.064;2023-06-05T05:29:18;15.50;35.90
19090;DHT22;9677;50.656;13.064;2023-06-05T05:31:46;15.50;36.00
19090;DHT22;9677;50.656;13.064;2023-06-05T05:34:14;15.60;35.90
19090;DHT22;9677;50.656;13.064;2023-06-05T05:36:44;15.60;35.90
19090;DHT22;9677;50.656;13.064;2023-06-05T05:39:12;15.60;35.90
19090;DHT22;9677;50.656;13.064;2023-06-05T05:41:40;15.60;35.90
19090;DHT22;9677;50.656;13.064;2023-06-05T05:44:08;15.60;36.10
19090;DHT22;9677;50.656;13.064;2023-06-05T05:46:36;15.70;36.30
19090;DHT22;9677;50.656;13.064;2023-06-05T05:49:04;15.70;36.30
19090;DHT22;9677;50.656;13.064;2023-06-05T05:51:33;15.70;36.40
19090;DHT22;9677;50.656;13.064;2023-06-05T05:54:02;15.80;36.40
19090;DHT22;9677;50.656;13.064;2023-06-05T05:56:30;15.80;36.60
19090;DHT22;9677;50.656;13.064;2023-06-05T05:59:00;15.80;36.50
19090;DHT22;9677;50.656;13.064;2023-06-05T06:01:28;15.90;36.60
19090;DHT22;9677;50.656;13.064;2023-06-05T06:03:56;15.90;36.60
19090;DHT22;9677;50.656;13.064;2023-06-05T06:06:25;16.00;36.80
19090;DHT22;9677;50.656;13.064;2023-06-05T06:08:53;16.00;36.90
19090;DHT22;9677;50.656;13.064;2023-06-05T06:11:22;16.10;36.90
19090;DHT22;9677;50.656;13.064;2023-06-05T06:13:54;16.10;37.00
19090;DHT22;9677;50.656;13.064;2023-06-05T06:16:22;16.20;37.00
19090;DHT22;9677;50.656;13.064;2023-06-05T06:18:50;16.20;37.00
19090;DHT22;9677;50.656;13.064;2023-06-05T06:21:23;16.30;37.10
19090;DHT22;9677;50.656;13.064;2023-06-05T06:23:52;16.40;37.10
19090;DHT22;9677;50.656;13.064;2023-06-05T06:26:22;16.50;37.10
19090;DHT22;9677;50.656;13.064;2023-06-05T06:28:52;16.60;37.20
19090;DHT22;9677;50.656;13.064;2023-06-05T06:31:21;16.60;37.20
19090;DHT22;9677;50.656;13.064;2023-06-05T06:33:49;16.70;37.20
19090;DHT22;9677;50.656;13.064;2023-06-05T06:36:17;16.70;37.20
19090;DHT22;9677;50.656;13.064;2023-06-05T06:38:45;16.80;37.20
19090;DHT22;9677;50.656;13.064;2023-06-05T06:41:13;16.90;37.30
19090;DHT22;9677;50.656;13.064;2023-06-05T06:43:43;17.00;37.30
19090;DHT22;9677;50.656;13.064;2023-06-05T06:47:49;17.10;37.30
19090;DHT22;9677;50.656;13.064;2023-06-05T06:50:32;17.20;37.40
19090;DHT22;9677;50.656;13.064;2023-06-05T06:53:00;17.30;37.40
19090;DHT22;9677;50.656;13.064;2023-06-05T06:55:29;17.40;37.30
19090;DHT22;9677;50.656;13.064;2023-06-05T06:57:57;17.50;37.40
19090;DHT22;9677;50.656;13.064;2023-06-05T07:00:25;17.60;37.30
19090;DHT22;9677;50.656;13.064;2023-06-05T07:02:54;18.00;37.50
19090;DHT22;9677;50.656;13.064;2023-06-05T07:05:23;17.90;37.60
19090;DHT22;9677;50.656;13.064;2023-06-05T07:07:51;18.00;37.50
19090;DHT22;9677;50.656;13.064;2023-06-05T07:10:19;18.10;37.50
19090;DHT22;9677;50.656;13.064;2023-06-05T07:12:47;18.20;37.60
19090;DHT22;9677;50.656;13.064;2023-06-05T07:15:15;18.40;37.60
19090;DHT22;9677;50.656;13.064;2023-06-05T07:17:43;18.50;37.50
19090;DHT22;9677;50.656;13.064;2023-06-05T07:20:13;18.70;37.50
19090;DHT22;9677;50.656;13.064;2023-06-05T07:22:42;18.80;37.60
19090;DHT22;9677;50.656;13.064;2023-06-05T07:25:11;19.00;37.70
19090;DHT22;9677;50.656;13.064;2023-06-05T07:27:43;19.10;37.50
19090;DHT22;9677;50.656;13.064;2023-06-05T07:30:12;19.20;37.40
19090;DHT22;9677;50.656;13.064;2023-06-05T07:32:41;19.30;37.30
19090;DHT22;9677;50.656;13.064;2023-06-05T07:35:13;19.50;37.40
19090;DHT22;9677;50.656;13.064;2023-06-05T07:37:41;19.60;37.40
19090;DHT22;9677;50.656;13.064;2023-06-05T07:40:10;19.70;37.40
19090;DHT22;9677;50.656;13.064;2023-06-05T07:42:38;19.80;37.40
19090;DHT22;9677;50.656;13.064;2023-06-05T07:45:07;19.90;37.40
19090;DHT22;9677;50.656;13.064;2023-06-05T07:47:36;20.00;37.40
19090;DHT22;9677;50.656;13.064;2023-06-05T07:50:05;20.10;37.50
19090;DHT22;9677;50.656;13.064;2023-06-05T07:52:36;20.20;37.40
19090;DHT22;9677;50.656;13.064;2023-06-05T07:55:04;20.40;37.40
19090;DHT22;9677;50.656;13.064;2023-06-05T07:57:34;20.40;37.30
19090;DHT22;9677;50.656;13.064;2023-06-05T08:00:04;20.60;37.50
19090;DHT22;9677;50.656;13.064;2023-06-05T08:02:39;20.70;37.40
19090;DHT22;9677;50.656;13.064;2023-06-05T08:05:08;20.90;37.40
19090;DHT22;9677;50.656;13.064;2023-06-05T08:07:38;21.00;37.30
19090;DHT22;9677;50.656;13.064;2023-06-05T08:10:07;21.20;37.60
19090;DHT22;9677;50.656;13.064;2023-06-05T08:12:36;21.30;37.60
19090;DHT22;9677;50.656;13.064;2023-06-05T08:15:05;21.50;37.60
19090;DHT22;9677;50.656;13.064;2023-06-05T08:17:34;21.70;37.60
19090;DHT22;9677;50.656;13.064;2023-06-05T08:20:03;22.00;37.50
19090;DHT22;9677;50.656;13.064;2023-06-05T08:22:32;22.10;37.30
19090;DHT22;9677;50.656;13.064;2023-06-05T08:25:01;22.40;37.20
19090;DHT22;9677;50.656;13.064;2023-06-05T08:27:31;22.60;37.10
19090;DHT22;9677;50.656;13.064;2023-06-05T08:29:59;22.80;36.80
19090;DHT22;9677;50.656;13.064;2023-06-05T08:32:27;22.90;36.80
19090;DHT22;9677;50.656;13.064;2023-06-05T08:34:55;23.10;36.80
19090;DHT22;9677;50.656;13.064;2023-06-05T08:37:23;23.30;36.60
19090;DHT22;9677;50.656;13.064;2023-06-05T08:39:51;23.50;36.60
19090;DHT22;9677;50.656;13.064;2023-06-05T08:42:20;23.70;36.30
19090;DHT22;9677;50.656;13.064;2023-06-05T08:44:51;23.80;36.20
19090;DHT22;9677;50.656;13.064;2023-06-05T08:47:29;24.00;36.20
19090;DHT22;9677;50.656;13.064;2023-06-05T08:50:01;24.20;36.20
19090;DHT22;9677;50.656;13.064;2023-06-05T08:52:33;24.40;36.30
19090;DHT22;9677;50.656;13.064;2023-06-05T08:55:03;24.60;36.10
19090;DHT22;9677;50.656;13.064;2023-06-05T08:57:34;24.70;36.00
19090;DHT22;9677;50.656;13.064;2023-06-05T09:00:05;24.90;35.70
19090;DHT22;9677;50.656;13.064;2023-06-05T09:02:38;25.00;35.30
19090;DHT22;9677;50.656;13.064;2023-06-05T09:05:10;25.20;35.20
19090;DHT22;9677;50.656;13.064;2023-06-05T09:07:39;25.30;35.00
19090;DHT22;9677;50.656;13.064;2023-06-05T09:10:21;25.50;34.60
19090;DHT22;9677;50.656;13.064;2023-06-05T09:12:55;25.60;34.60
19090;DHT22;9677;50.656;13.064;2023-06-05T09:15:26;25.70;34.30
19090;DHT22;9677;50.656;13.064;2023-06-05T09:18:03;25.80;34.20
19090;DHT22;9677;50.656;13.064;2023-06-05T09:20:35;26.00;34.10
19090;DHT22;9677;50.656;13.064;2023-06-05T09:23:20;26.10;33.90
19090;DHT22;9677;50.656;13.064;2023-06-05T09:25:53;26.20;33.70
19090;DHT22;9677;50.656;13.064;2023-06-05T09:28:23;26.30;33.70
19090;DHT22;9677;50.656;13.064;2023-06-05T09:30:55;26.40;33.40
19090;DHT22;9677;50.656;13.064;2023-06-05T09:33:26;26.50;33.40
19090;DHT22;9677;50.656;13.064;2023-06-05T09:36:02;26.60;33.40
19090;DHT22;9677;50.656;13.064;2023-06-05T09:38:32;26.60;33.30
19090;DHT22;9677;50.656;13.064;2023-06-05T09:41:04;26.80;33.30
19090;DHT22;9677;50.656;13.064;2023-06-05T09:43:34;26.80;33.20
19090;DHT22;9677;50.656;13.064;2023-06-05T09:46:07;27.10;33.20
19090;DHT22;9677;50.656;13.064;2023-06-05T09:48:38;27.00;33.00
19090;DHT22;9677;50.656;13.064;2023-06-05T09:51:08;27.20;32.90
19090;DHT22;9677;50.656;13.064;2023-06-05T09:53:42;27.30;32.90
19090;DHT22;9677;50.656;13.064;2023-06-05T09:56:13;27.30;32.80
19090;DHT22;9677;50.656;13.064;2023-06-05T09:58:47;27.40;32.60
19090;DHT22;9677;50.656;13.064;2023-06-05T10:01:17;27.50;32.60
19090;DHT22;9677;50.656;13.064;2023-06-05T10:03:52;27.60;32.30
19090;DHT22;9677;50.656;13.064;2023-06-05T10:06:46;27.60;32.00
19090;DHT22;9677;50.656;13.064;2023-06-05T10:09:15;27.70;32.00
19090;DHT22;9677;50.656;13.064;2023-06-05T10:11:48;27.80;31.90
19090;DHT22;9677;50.656;13.064;2023-06-05T10:14:18;27.70;32.00
19090;DHT22;9677;50.656;13.064;2023-06-05T10:16:49;27.80;31.90
19090;DHT22;9677;50.656;13.064;2023-06-05T10:19:19;27.80;31.80
19090;DHT22;9677;50.656;13.064;2023-06-05T10:21:48;27.90;31.90
19090;DHT22;9677;50.656;13.064;2023-06-05T10:24:19;28.00;32.00
19090;DHT22;9677;50.656;13.064;2023-06-05T10:27:11;28.10;31.80
19090;DHT22;9677;50.656;13.064;2023-06-05T10:30:07;28.20;31.80
19090;DHT22;9677;50.656;13.064;2023-06-05T10:33:05;28.30;31.40
19090;DHT22;9677;50.656;13.064;2023-06-05T10:35:47;28.50;31.30
19090;DHT22;9677;50.656;13.064;2023-06-05T10:38:19;28.60;31.30
19090;DHT22;9677;50.656;13.064;2023-06-05T10:40:51;28.80;31.30
19090;DHT22;9677;50.656;13.064;2023-06-05T10:43:29;28.90;31.10
19090;DHT22;9677;50.656;13.064;2023-06-05T10:46:00;29.10;30.80
19090;DHT22;9677;50.656;13.064;2023-06-05T10:49:09;29.20;30.80
19090;DHT22;9677;50.656;13.064;2023-06-05T10:51:40;29.30;30.40
19090;DHT22;9677;50.656;13.064;2023-06-05T10:54:11;29.40;30.50
19090;DHT22;9677;50.656;13.064;2023-06-05T10:57:01;29.40;30.40
19090;DHT22;9677;50.656;13.064;2023-06-05T10:59:33;29.60;30.10
19090;DHT22;9677;50.656;13.064;2023-06-05T11:02:25;29.60;30.20
19090;DHT22;9677;50.656;13.064;2023-06-05T11:05:07;29.70;29.70
19090;DHT22;9677;50.656;13.064;2023-06-05T11:07:38;29.80;29.90
19090;DHT22;9677;50.656;13.064;2023-06-05T11:10:12;29.90;30.00
19090;DHT22;9677;50.656;13.064;2023-06-05T11:12:57;30.00;29.90
19090;DHT22;9677;50.656;13.064;2023-06-05T11:15:38;30.10;29.50
19090;DHT22;9677;50.656;13.064;2023-06-05T11:18:34;30.20;29.70
19090;DHT22;9677;50.656;13.064;2023-06-05T11:21:03;30.30;29.30
19090;DHT22;9677;50.656;13.064;2023-06-05T11:23:31;30.40;29.50
19090;DHT22;9677;50.656;13.064;2023-06-05T11:29:15;30.50;29.20
19090;DHT22;9677;50.656;13.064;2023-06-05T11:31:44;30.50;29.20
19090;DHT22;9677;50.656;13.064;2023-06-05T11:34:15;30.50;29.30
19090;DHT22;9677;50.656;13.064;2023-06-05T11:36:43;30.50;29.10
19090;DHT22;9677;50.656;13.064;2023-06-05T11:39:12;30.50;29.10
19090;DHT22;9677;50.656;13.064;2023-06-05T11:41:44;30.50;29.10
19090;DHT22;9677;50.656;13.064;2023-06-05T11:44:13;30.60;29.20
19090;DHT22;9677;50.656;13.064;2023-06-05T11:46:43;30.60;29.10
19090;DHT22;9677;50.656;13.064;2023-06-05T11:49:25;30.70;29.20
19090;DHT22;9677;50.656;13.064;2023-06-05T11:51:54;30.80;28.70
19090;DHT22;9677;50.656;13.064;2023-06-05T11:54:28;31.00;29.10
19090;DHT22;9677;50.656;13.064;2023-06-05T11:56:58;31.00;28.90
19090;DHT22;9677;50.656;13.064;2023-06-05T11:59:28;31.20;28.70
19090;DHT22;9677;50.656;13.064;2023-06-05T12:01:56;31.30;28.60
19090;DHT22;9677;50.656;13.064;2023-06-05T12:04:26;31.40;28.30
19090;DHT22;9677;50.656;13.064;2023-06-05T12:06:54;31.60;28.30
19090;DHT22;9677;50.656;13.064;2023-06-05T12:09:22;31.60;28.30
19090;DHT22;9677;50.656;13.064;2023-06-05T12:11:50;31.60;28.30
19090;DHT22;9677;50.656;13.064;2023-06-05T12:14:29;31.70;28.20
19090;DHT22;9677;50.656;13.064;2023-06-05T12:16:59;31.70;27.70
19090;DHT22;9677;50.656;13.064;2023-06-05T12:19:30;31.70;28.00
19090;DHT22;9677;50.656;13.064;2023-06-05T12:22:03;31.70;28.10
19090;DHT22;9677;50.656;13.064;2023-06-05T12:24:33;31.70;27.90
19090;DHT22;9677;50.656;13.064;2023-06-05T12:27:02;31.80;27.60
19090;DHT22;9677;50.656;13.064;2023-06-05T12:29:35;31.80;27.60
19090;DHT22;9677;50.656;13.064;2023-06-05T12:32:20;31.90;27.70
19090;DHT22;9677;50.656;13.064;2023-06-05T12:34:51;31.90;27.30
19090;DHT22;9677;50.656;13.064;2023-06-05T12:37:32;31.90;27.30
19090;DHT22;9677;50.656;13.064;2023-06-05T12:40:05;31.80;27.30
19090;DHT22;9677;50.656;13.064;2023-06-05T12:42:37;31.80;27.30
19090;DHT22;9677;50.656;13.064;2023-06-05T12:45:07;31.80;27.30
19090;DHT22;9677;50.656;13.064;2023-06-05T12:47:37;31.70;27.40
19090;DHT22;9677;50.656;13.064;2023-06-05T12:50:08;31.70;27.60
19090;DHT22;9677;50.656;13.064;2023-06-05T12:52:39;31.70;27.40
19090;DHT22;9677;50.656;13.064;2023-06-05T12:55:08;31.90;27.60
19090;DHT22;9677;50.656;13.064;2023-06-05T12:57:37;31.80;27.40
19090;DHT22;9677;50.656;13.064;2023-06-05T13:00:06;31.80;27.20
19090;DHT22;9677;50.656;13.064;2023-06-05T13:02:42;31.80;27.20
19090;DHT22;9677;50.656;13.064;2023-06-05T13:05:13;31.70;27.10
19090;DHT22;9677;50.656;13.064;2023-06-05T13:07:42;31.70;27.10
19090;DHT22;9677;50.656;13.064;2023-06-05T13:10:10;31.70;27.10
19090;DHT22;9677;50.656;13.064;2023-06-05T13:12:38;31.70;27.10
19090;DHT22;9677;50.656;13.064;2023-06-05T13:15:08;31.60;27.00
19090;DHT22;9677;50.656;13.064;2023-06-05T13:17:37;31.60;27.00
19090;DHT22;9677;50.656;13.064;2023-06-05T13:20:06;31.50;27.10
19090;DHT22;9677;50.656;13.064;2023-06-05T13:22:37;31.50;27.00
19090;DHT22;9677;50.656;13.064;2023-06-05T13:25:06;31.50;27.10
19090;DHT22;9677;50.656;13.064;2023-06-05T13:27:35;31.40;27.20
19090;DHT22;9677;50.656;13.064;2023-06-05T13:30:05;31.40;27.20
19090;DHT22;9677;50.656;13.064;2023-06-05T13:32:34;31.40;27.30
19090;DHT22;9677;50.656;13.064;2023-06-05T13:35:05;31.40;27.50
19090;DHT22;9677;50.656;13.064;2023-06-05T13:37:37;31.30;27.40
19090;DHT22;9677;50.656;13.064;2023-06-05T13:40:06;31.40;27.30
19090;DHT22;9677;50.656;13.064;2023-06-05T13:42:36;31.40;27.30
19090;DHT22;9677;50.656;13.064;2023-06-05T13:45:05;31.30;27.30
19090;DHT22;9677;50.656;13.064;2023-06-05T13:47:34;31.30;27.80
19090;DHT22;9677;50.656;13.064;2023-06-05T13:50:03;31.30;27.20
19090;DHT22;9677;50.656;13.064;2023-06-05T13:52:32;31.20;27.20
19090;DHT22;9677;50.656;13.064;2023-06-05T13:55:01;31.10;27.30
19090;DHT22;9677;50.656;13.064;2023-06-05T13:57:29;31.00;27.30
19090;DHT22;9677;50.656;13.064;2023-06-05T13:59:57;31.00;27.30
19090;DHT22;9677;50.656;13.064;2023-06-05T14:02:25;30.90;27.20
19090;DHT22;9677;50.656;13.064;2023-06-05T14:04:54;30.80;27.30
19090;DHT22;9677;50.656;13.064;2023-06-05T14:07:22;30.70;27.40
19090;DHT22;9677;50.656;13.064;2023-06-05T14:09:53;30.60;27.50
19090;DHT22;9677;50.656;13.064;2023-06-05T14:12:22;30.60;27.50
19090;DHT22;9677;50.656;13.064;2023-06-05T14:14:50;30.40;27.90
19090;DHT22;9677;50.656;13.064;2023-06-05T14:17:20;30.30;27.60
19090;DHT22;9677;50.656;13.064;2023-06-05T14:19:49;30.20;27.70
19090;DHT22;9677;50.656;13.064;2023-06-05T14:22:17;30.20;27.80
19090;DHT22;9677;50.656;13.064;2023-06-05T14:24:46;30.10;27.80
19090;DHT22;9677;50.656;13.064;2023-06-05T14:27:14;30.00;27.80
19090;DHT22;9677;50.656;13.064;2023-06-05T14:29:44;30.00;27.90
19090;DHT22;9677;50.656;13.064;2023-06-05T14:32:12;29.90;28.00
19090;DHT22;9677;50.656;13.064;2023-06-05T14:34:40;29.80;28.00
19090;DHT22;9677;50.656;13.064;2023-06-05T14:37:08;29.70;28.00
19090;DHT22;9677;50.656;13.064;2023-06-05T14:39:36;29.70;28.10
19090;DHT22;9677;50.656;13.064;2023-06-05T14:42:05;29.60;28.00
19090;DHT22;9677;50.656;13.064;2023-06-05T14:44:34;29.50;28.00
19090;DHT22;9677;50.656;13.064;2023-06-05T14:47:05;29.40;28.10
19090;DHT22;9677;50.656;13.064;2023-06-05T14:49:33;29.30;28.10
19090;DHT22;9677;50.656;13.064;2023-06-05T14:52:02;29.20;28.20
19090;DHT22;9677;50.656;13.064;2023-06-05T14:54:31;29.10;28.20
19090;DHT22;9677;50.656;13.064;2023-06-05T14:57:00;29.10;28.30
19090;DHT22;9677;50.656;13.064;2023-06-05T14:59:28;29.00;28.30
19090;DHT22;9677;50.656;13.064;2023-06-05T15:01:56;29.00;28.30
19090;DHT22;9677;50.656;13.064;2023-06-05T15:04:26;28.90;28.30
19090;DHT22;9677;50.656;13.064;2023-06-05T15:06:55;28.90;28.30
19090;DHT22;9677;50.656;13.064;2023-06-05T15:09:23;28.90;28.30
19090;DHT22;9677;50.656;13.064;2023-06-05T15:11:52;28.80;28.20
19090;DHT22;9677;50.656;13.064;2023-06-05T15:14:22;28.70;28.30
19090;DHT22;9677;50.656;13.064;2023-06-05T15:16:51;28.70;28.30
19090;DHT22;9677;50.656;13.064;2023-06-05T15:19:19;28.60;28.20
19090;DHT22;9677;50.656;13.064;2023-06-05T15:21:49;28.50;28.20
19090;DHT22;9677;50.656;13.064;2023-06-05T15:24:17;28.50;28.40
19090;DHT22;9677;50.656;13.064;2023-06-05T15:26:45;28.40;28.40
19090;DHT22;9677;50.656;13.064;2023-06-05T15:29:13;28.30;28.40
19090;DHT22;9677;50.656;13.064;2023-06-05T15:31:41;28.30;28.50
19090;DHT22;9677;50.656;13.064;2023-06-05T15:34:12;28.30;28.50
19090;DHT22;9677;50.656;13.064;2023-06-05T15:36:40;28.20;28.60
19090;DHT22;9677;50.656;13.064;2023-06-05T15:39:09;28.20;28.70
19090;DHT22;9677;50.656;13.064;2023-06-05T15:41:39;28.20;28.70
19090;DHT22;9677;50.656;13.064;2023-06-05T15:44:10;28.10;28.70
19090;DHT22;9677;50.656;13.064;2023-06-05T15:46:39;28.00;28.70
19090;DHT22;9677;50.656;13.064;2023-06-05T15:49:07;28.00;28.80
19090;DHT22;9677;50.656;13.064;2023-06-05T15:51:35;28.00;28.90
19090;DHT22;9677;50.656;13.064;2023-06-05T15:54:04;27.90;28.80
19090;DHT22;9677;50.656;13.064;2023-06-05T15:57:05;27.90;28.80